sensor_id;sensor_type;location;lat;lon;timestamp;pressure;altitude;pressure_sealevel;temperature;humidity
7109;BME280;29079;41.930;25.558;2022-07-29T17:25:08;99398.09;;;29.34;33.44
7109;BME280;29079;41.930;25.558;2022-07-29T17:27:48;99400.81;;;29.29;33.67
7109;BME280;29079;41.930;25.558;2022-07-29T17:33:25;99396.78;;;29.10;34.71
7109;BME280;29079;41.930;25.558;2022-07-29T17:39:07;99406.09;;;29.09;34.01
7109;BME280;29079;41.930;25.558;2022-07-29T17:41:40;99410.72;;;29.03;34.40
7109;BME280;29079;41.930;25.558;2022-07-29T17:44:13;99406.84;;;28.99;34.39
7109;BME280;29079;41.930;25.558;2022-07-29T17:46:43;99408.72;;;28.93;34.43
7109;BME280;29079;41.930;25.558;2022-07-29T17:49:14;99406.50;;;28.90;34.27
7109;BME280;29079;41.930;25.558;2022-07-29T17:51:46;99406.41;;;28.80;35.27
7109;BME280;29079;41.930;25.558;2022-07-29T17:54:17;99401.72;;;28.80;36.02
7109;BME280;29079;41.930;25.558;2022-07-29T17:56:48;99403.59;;;28.75;35.19
7109;BME280;29079;41.930;25.558;2022-07-29T17:59:18;99412.63;;;28.70;35.73
7109;BME280;29079;41.930;25.558;2022-07-29T18:01:49;99420.28;;;28.68;35.16
7109;BME280;29079;41.930;25.558;2022-07-29T18:04:19;99419.72;;;28.66;35.67
7109;BME280;29079;41.930;25.558;2022-07-29T18:06:51;99421.53;;;28.60;35.71
7109;BME280;29079;41.930;25.558;2022-07-29T18:09:21;99439.03;;;28.54;36.12
7109;BME280;29079;41.930;25.558;2022-07-29T18:11:53;99431.00;;;28.47;35.62
7109;BME280;29079;41.930;25.558;2022-07-29T18:14:23;99447.19;;;28.49;35.66
7109;BME280;29079;41.930;25.558;2022-07-29T18:16:54;99446.06;;;28.45;35.48
7109;BME280;29079;41.930;25.558;2022-07-29T18:19:25;99449.00;;;28.38;36.00
7109;BME280;29079;41.930;25.558;2022-07-29T18:21:55;99444.28;;;28.34;36.18
7109;BME280;29079;41.930;25.558;2022-07-29T18:24:33;99448.03;;;28.27;36.05
7109;BME280;29079;41.930;25.558;2022-07-29T18:27:05;99455.72;;;28.25;36.07
7109;BME280;29079;41.930;25.558;2022-07-29T18:29:34;99458.63;;;28.19;36.20
7109;BME280;29079;41.930;25.558;2022-07-29T18:32:05;99471.44;;;28.13;36.51
7109;BME280;29079;41.930;25.558;2022-07-29T18:34:36;99466.81;;;28.13;36.32
7109;BME280;29079;41.930;25.558;2022-07-29T18:37:06;99469.81;;;28.12;37.42
7109;BME280;29079;41.930;25.558;2022-07-29T18:39:36;99479.28;;;28.04;36.95
7109;BME280;29079;41.930;25.558;2022-07-29T18:42:08;99472.81;;;27.93;36.84
7109;BME280;29079;41.930;25.558;2022-07-29T18:44:38;99474.47;;;27.94;37.09
7109;BME280;29079;41.930;25.558;2022-07-29T18:47:17;99479.81;;;27.84;37.21
7109;BME280;29079;41.930;25.558;2022-07-29T18:49:48;99480.38;;;27.86;37.26
7109;BME280;29079;41.930;25.558;2022-07-29T18:52:18;99480.63;;;27.85;37.92
7109;BME280;29079;41.930;25.558;2022-07-29T18:54:48;99486.78;;;27.75;37.71
7109;BME280;29079;41.930;25.558;2022-07-29T18:57:19;99492.00;;;27.76;37.85
7109;BME280;29079;41.930;25.558;2022-07-29T19:03:12;99495.19;;;27.51;38.01
7109;BME280;29079;41.930;25.558;2022-07-29T19:05:42;99495.03;;;27.58;38.15
7109;BME280;29079;41.930;25.558;2022-07-29T19:08:12;99498.66;;;27.63;38.44
7109;BME280;29079;41.930;25.558;2022-07-29T19:10:42;99497.94;;;27.68;37.95
7109;BME280;29079;41.930;25.558;2022-07-29T19:13:14;99501.91;;;27.60;38.42
7109;BME280;29079;41.930;25.558;2022-07-29T19:15:45;99496.16;;;27.62;38.24
7109;BME280;29079;41.930;25.558;2022-07-29T19:18:15;99511.22;;;27.59;38.66
7109;BME280;29079;41.930;25.558;2022-07-29T19:20:45;99509.72;;;27.52;38.62
7109;BME280;29079;41.930;25.558;2022-07-29T19:23:15;99514.25;;;27.46;38.95
7109;BME280;29079;41.930;25.558;2022-07-29T19:25:46;99511.59;;;27.34;39.26
7109;BME280;29079;41.930;25.558;2022-07-29T19:28:22;99519.22;;;27.32;38.93
7109;BME280;29079;41.930;25.558;2022-07-29T19:30:53;99521.59;;;27.28;39.32
7109;BME280;29079;41.930;25.558;2022-07-29T19:33:23;99529.81;;;27.28;39.61
7109;BME280;29079;41.930;25.558;2022-07-29T19:35:53;99491.78;;;27.15;39.39
7109;BME280;29079;41.930;25.558;2022-07-29T19:38:23;99524.03;;;27.25;39.57
7109;BME280;29079;41.930;25.558;2022-07-29T19:40:53;99519.53;;;27.19;39.43
7109;BME280;29079;41.930;25.558;2022-07-29T19:43:26;99525.72;;;27.14;39.75
7109;BME280;29079;41.930;25.558;2022-07-29T19:46:17;99526.81;;;27.13;39.76
7109;BME280;29079;41.930;25.558;2022-07-29T19:48:48;99521.47;;;27.06;40.23
7109;BME280;29079;41.930;25.558;2022-07-29T19:51:19;99520.50;;;27.13;40.24
7109;BME280;29079;41.930;25.558;2022-07-29T19:53:50;99524.16;;;27.01;40.38
7109;BME280;29079;41.930;25.558;2022-07-29T19:56:20;99530.25;;;26.91;40.22
7109;BME280;29079;41.930;25.558;2022-07-29T19:58:54;99520.59;;;26.89;40.48
7109;BME280;29079;41.930;25.558;2022-07-29T20:01:25;99522.47;;;27.00;40.53
7109;BME280;29079;41.930;25.558;2022-07-29T20:03:55;99522.34;;;26.95;40.31
7109;BME280;29079;41.930;25.558;2022-07-29T20:06:25;99522.09;;;26.80;40.59
7109;BME280;29079;41.930;25.558;2022-07-29T20:08:55;99503.28;;;26.71;40.78
7109;BME280;29079;41.930;25.558;2022-07-29T20:11:26;99522.66;;;26.82;41.00
7109;BME280;29079;41.930;25.558;2022-07-29T20:13:59;99527.88;;;26.83;41.24
7109;BME280;29079;41.930;25.558;2022-07-29T20:16:30;99526.97;;;26.66;41.18
7109;BME280;29079;41.930;25.558;2022-07-29T20:19:00;99498.81;;;26.53;41.54
7109;BME280;29079;41.930;25.558;2022-07-29T20:21:30;99524.13;;;26.61;41.47
7109;BME280;29079;41.930;25.558;2022-07-29T20:24:01;99528.06;;;26.53;41.95
7109;BME280;29079;41.930;25.558;2022-07-29T20:26:31;99526.38;;;26.64;41.66
7109;BME280;29079;41.930;25.558;2022-07-29T20:29:03;99525.69;;;26.68;41.64
7109;BME280;29079;41.930;25.558;2022-07-29T20:31:34;99526.63;;;26.74;41.41
7109;BME280;29079;41.930;25.558;2022-07-29T20:34:04;99521.84;;;26.57;41.74
7109;BME280;29079;41.930;25.558;2022-07-29T20:36:34;99527.25;;;26.52;41.99
7109;BME280;29079;41.930;25.558;2022-07-29T20:39:05;99529.00;;;26.58;41.99
7109;BME280;29079;41.930;25.558;2022-07-29T20:41:35;99532.72;;;26.52;41.92
7109;BME280;29079;41.930;25.558;2022-07-29T20:44:07;99540.69;;;26.54;41.81
7109;BME280;29079;41.930;25.558;2022-07-29T20:46:37;99543.19;;;26.44;42.13
7109;BME280;29079;41.930;25.558;2022-07-29T20:49:08;99537.97;;;26.42;41.88
7109;BME280;29079;41.930;25.558;2022-07-29T20:51:38;99542.13;;;26.45;42.06
7109;BME280;29079;41.930;25.558;2022-07-29T20:54:11;99528.31;;;26.39;41.84
7109;BME280;29079;41.930;25.558;2022-07-29T20:56:41;99539.06;;;26.29;41.79
7109;BME280;29079;41.930;25.558;2022-07-29T20:59:13;99540.72;;;26.18;42.04
7109;BME280;29079;41.930;25.558;2022-07-29T21:01:43;99541.91;;;26.11;41.92
7109;BME280;29079;41.930;25.558;2022-07-29T21:04:14;99544.88;;;26.09;41.93
7109;BME280;29079;41.930;25.558;2022-07-29T21:06:44;99552.97;;;26.04;42.15
7109;BME280;29079;41.930;25.558;2022-07-29T21:09:14;99547.22;;;25.94;42.18
7109;BME280;29079;41.930;25.558;2022-07-29T21:11:46;99551.97;;;25.86;41.99
7109;BME280;29079;41.930;25.558;2022-07-29T21:14:18;99553.75;;;25.81;42.01
7109;BME280;29079;41.930;25.558;2022-07-29T21:16:58;99557.19;;;25.76;42.27
7109;BME280;29079;41.930;25.558;2022-07-29T21:19:29;99558.34;;;25.57;42.54
7109;BME280;29079;41.930;25.558;2022-07-29T21:21:59;99557.38;;;25.51;42.66
7109;BME280;29079;41.930;25.558;2022-07-29T21:24:29;99568.91;;;25.53;42.93
7109;BME280;29079;41.930;25.558;2022-07-29T21:27:00;99563.09;;;25.49;42.96
7109;BME280;29079;41.930;25.558;2022-07-29T21:29:50;99569.72;;;25.42;43.31
7109;BME280;29079;41.930;25.558;2022-07-29T21:32:20;99562.91;;;25.32;43.07
7109;BME280;29079;41.930;25.558;2022-07-29T21:34:57;99563.13;;;25.31;43.37
7109;BME280;29079;41.930;25.558;2022-07-29T21:37:27;99571.34;;;25.31;43.38
7109;BME280;29079;41.930;25.558;2022-07-29T21:39:57;99580.16;;;25.33;43.39
7109;BME280;29079;41.930;25.558;2022-07-29T21:42:28;99563.47;;;25.23;43.47
7109;BME280;29079;41.930;25.558;2022-07-29T21:44:59;99574.97;;;25.25;43.66
7109;BME280;29079;41.930;25.558;2022-07-29T21:47:29;99573.13;;;25.07;44.01
7109;BME280;29079;41.930;25.558;2022-07-29T21:49:59;99581.38;;;25.00;44.42
7109;BME280;29079;41.930;25.558;2022-07-29T21:52:29;99567.13;;;24.98;44.39
7109;BME280;29079;41.930;25.558;2022-07-29T21:54:59;99572.00;;;24.96;44.55
7109;BME280;29079;41.930;25.558;2022-07-29T21:57:30;99577.91;;;24.74;44.87
7109;BME280;29079;41.930;25.558;2022-07-29T22:00:03;99568.75;;;24.68;44.83
7109;BME280;29079;41.930;25.558;2022-07-29T22:02:33;99579.97;;;24.79;44.59
7109;BME280;29079;41.930;25.558;2022-07-29T22:05:04;99574.34;;;24.92;44.49
7109;BME280;29079;41.930;25.558;2022-07-29T22:07:34;99574.34;;;24.92;44.43
7109;BME280;29079;41.930;25.558;2022-07-29T22:10:25;99572.53;;;24.86;44.76
7109;BME280;29079;41.930;25.558;2022-07-29T22:12:57;99568.75;;;24.87;44.63
7109;BME280;29079;41.930;25.558;2022-07-29T22:15:29;99563.97;;;24.82;44.71
7109;BME280;29079;41.930;25.558;2022-07-29T22:18:00;99572.22;;;24.76;44.90
7109;BME280;29079;41.930;25.558;2022-07-29T22:20:30;99577.47;;;24.59;45.56
7109;BME280;29079;41.930;25.558;2022-07-29T22:23:00;99578.56;;;24.51;45.73
7109;BME280;29079;41.930;25.558;2022-07-29T22:25:30;99567.81;;;24.38;46.18
7109;BME280;29079;41.930;25.558;2022-07-29T22:28:00;99571.31;;;24.45;45.99
7109;BME280;29079;41.930;25.558;2022-07-29T22:30:32;99570.94;;;24.41;46.28
7109;BME280;29079;41.930;25.558;2022-07-29T22:33:02;99574.09;;;24.38;46.50
7109;BME280;29079;41.930;25.558;2022-07-29T22:35:33;99569.31;;;24.33;46.59
7109;BME280;29079;41.930;25.558;2022-07-29T22:38:03;99566.19;;;24.11;47.41
7109;BME280;29079;41.930;25.558;2022-07-29T22:40:33;99562.13;;;23.95;47.52
7109;BME280;29079;41.930;25.558;2022-07-29T22:43:04;99572.28;;;23.81;48.13
7109;BME280;29079;41.930;25.558;2022-07-29T22:45:35;99574.09;;;23.94;47.78
7109;BME280;29079;41.930;25.558;2022-07-29T22:48:05;99567.09;;;24.05;47.48
7109;BME280;29079;41.930;25.558;2022-07-29T22:50:35;99558.97;;;23.98;47.68
7109;BME280;29079;41.930;25.558;2022-07-29T22:53:06;99549.19;;;23.84;47.85
7109;BME280;29079;41.930;25.558;2022-07-29T22:55:36;99565.41;;;23.79;48.17
7109;BME280;29079;41.930;25.558;2022-07-29T22:58:06;99564.94;;;23.82;48.20
7109;BME280;29079;41.930;25.558;2022-07-29T23:00:37;99540.31;;;23.70;48.09
7109;BME280;29079;41.930;25.558;2022-07-29T23:03:07;99553.72;;;23.72;48.33
7109;BME280;29079;41.930;25.558;2022-07-29T23:05:38;99559.28;;;23.84;48.10
7109;BME280;29079;41.930;25.558;2022-07-29T23:08:08;99545.22;;;23.87;48.08
7109;BME280;29079;41.930;25.558;2022-07-29T23:10:38;99555.31;;;23.79;48.40
7109;BME280;29079;41.930;25.558;2022-07-29T23:13:08;99548.81;;;23.55;48.81
7109;BME280;29079;41.930;25.558;2022-07-29T23:15:40;99557.16;;;23.60;48.85
7109;BME280;29079;41.930;25.558;2022-07-29T23:18:10;99547.53;;;23.58;49.02
7109;BME280;29079;41.930;25.558;2022-07-29T23:20:41;99547.97;;;23.55;48.88
7109;BME280;29079;41.930;25.558;2022-07-29T23:23:11;99546.97;;;23.49;49.10
7109;BME280;29079;41.930;25.558;2022-07-29T23:25:41;99544.56;;;23.34;49.41
7109;BME280;29079;41.930;25.558;2022-07-29T23:28:12;99547.06;;;23.36;49.20
7109;BME280;29079;41.930;25.558;2022-07-29T23:30:43;99543.09;;;23.32;49.37
7109;BME280;29079;41.930;25.558;2022-07-29T23:33:13;99541.84;;;23.34;49.57
7109;BME280;29079;41.930;25.558;2022-07-29T23:35:43;99537.59;;;23.06;49.92
7109;BME280;29079;41.930;25.558;2022-07-29T23:38:13;99536.03;;;23.24;49.50
7109;BME280;29079;41.930;25.558;2022-07-29T23:40:43;99533.56;;;23.16;50.07
7109;BME280;29079;41.930;25.558;2022-07-29T23:43:13;99539.00;;;23.22;49.65
7109;BME280;29079;41.930;25.558;2022-07-29T23:45:44;99542.19;;;23.12;50.14
7109;BME280;29079;41.930;25.558;2022-07-29T23:48:16;99526.91;;;23.11;50.14
7109;BME280;29079;41.930;25.558;2022-07-29T23:50:46;99531.13;;;23.01;50.39
7109;BME280;29079;41.930;25.558;2022-07-29T23:53:16;99535.34;;;22.90;50.65
7109;BME280;29079;41.930;25.558;2022-07-29T23:55:46;99525.91;;;22.99;50.58
7109;BME280;29079;41.930;25.558;2022-07-29T23:58:16;99513.19;;;22.86;50.52
